Time;durP1;ratioP1;P1;durP2;ratioP2;P2;SDS_P1;SDS_P2;PMS_P1;PMS_P2;Temp;Humidity;BMP_temperature;BMP_pressure;BME280_temperature;BME280_humidity;BME280_pressure;Samples;Min_cycle;Max_cycle;Signal;HPM_P1;HPM_P2
2022/05/27 00:00:41;;;;;;;;;;;15.20;99.90;;;;;;5000591;28;37534;-54
2022/05/27 00:03:09;;;;;;;;;;;15.20;99.90;;;;;;5002002;28;38513;-54
2022/05/27 00:05:36;;;;;;;;;;;15.20;99.90;;;;;;5001138;28;38245;-53
2022/05/27 00:08:03;;;;;;;;;;;15.10;99.90;;;;;;5001970;28;36951;-54
2022/05/27 00:10:30;;;;;;;;;;;15.10;99.90;;;;;;5001938;28;38103;-54
2022/05/27 00:12:57;;;;;;;;;;;15.10;99.90;;;;;;5001173;28;36971;-54
2022/05/27 00:15:24;;;;;;;;;;;15.10;99.90;;;;;;5000161;28;37845;-53
2022/05/27 00:17:52;;;;;;;;;;;15.10;99.90;;;;;;5001215;28;35058;-54
2022/05/27 00:20:19;;;;;;;;;;;15.00;99.90;;;;;;5000660;28;37689;-53
2022/05/27 00:22:46;;;;;;;;;;;15.00;99.90;;;;;;4999682;28;40181;-54
2022/05/27 00:25:14;;;;;;;;;;;15.00;99.90;;;;;;4999460;28;36135;-54
2022/05/27 00:27:41;;;;;;;;;;;15.00;99.90;;;;;;4998694;28;38466;-51
2022/05/27 00:30:09;;;;;;;;;;;15.00;99.90;;;;;;4999967;28;37633;-54
2022/05/27 00:32:37;;;;;;;;;;;15.00;99.90;;;;;;4999593;28;37348;-54
2022/05/27 00:35:06;;;;;;;;;;;14.90;99.90;;;;;;4999222;28;37164;-54
2022/05/27 00:37:33;;;;;;;;;;;14.90;99.90;;;;;;4999275;28;36991;-54
2022/05/27 00:40:00;;;;;;;;;;;14.90;99.90;;;;;;5000837;28;39249;-54
2022/05/27 00:42:27;;;;;;;;;;;14.80;99.90;;;;;;5000754;28;37264;-54
2022/05/27 00:44:54;;;;;;;;;;;14.80;99.90;;;;;;5000073;28;37801;-54
2022/05/27 00:47:23;;;;;;;;;;;14.80;99.90;;;;;;5000250;28;36207;-54
2022/05/27 00:49:52;;;;;;;;;;;14.80;99.90;;;;;;5001384;28;38905;-53
2022/05/27 00:52:22;;;;;;;;;;;14.80;99.90;;;;;;5001565;28;38886;-54
2022/05/27 00:54:49;;;;;;;;;;;14.70;99.90;;;;;;5000583;28;39253;-54
2022/05/27 00:57:18;;;;;;;;;;;14.70;99.90;;;;;;5000129;28;36384;-53
2022/05/27 00:59:49;;;;;;;;;;;14.70;99.90;;;;;;4999628;28;40610;-53
2022/05/27 01:02:16;;;;;;;;;;;14.70;99.90;;;;;;4998681;28;39194;-52
2022/05/27 01:04:43;;;;;;;;;;;14.60;99.90;;;;;;5000877;28;37611;-52
2022/05/27 01:07:11;;;;;;;;;;;14.60;99.90;;;;;;4999514;28;36672;-53
2022/05/27 01:09:42;;;;;;;;;;;14.60;99.90;;;;;;5000456;28;37891;-54
2022/05/27 01:12:18;;;;;;;;;;;14.60;99.90;;;;;;4999390;28;37252;-53
2022/05/27 01:14:54;;;;;;;;;;;14.50;99.90;;;;;;4999785;28;37747;-53
2022/05/27 01:17:27;;;;;;;;;;;14.50;99.90;;;;;;4999853;28;36668;-53
2022/05/27 01:20:20;;;;;;;;;;;14.50;99.90;;;;;;4999271;28;37911;-53
2022/05/27 01:22:52;;;;;;;;;;;14.50;99.90;;;;;;4999906;28;40209;-53
2022/05/27 01:25:39;;;;;;;;;;;14.40;99.90;;;;;;5000726;28;38098;-54
2022/05/27 01:28:26;;;;;;;;;;;14.40;99.90;;;;;;4999879;28;34625;-54
2022/05/27 01:30:58;;;;;;;;;;;14.30;99.90;;;;;;5001251;28;36479;-54
2022/05/27 01:33:32;;;;;;;;;;;14.30;99.90;;;;;;5000800;28;37069;-54
2022/05/27 01:36:03;;;;;;;;;;;14.30;99.90;;;;;;4999741;28;37994;-53
2022/05/27 01:38:34;;;;;;;;;;;14.20;99.90;;;;;;5000560;28;35970;-54
2022/05/27 01:41:04;;;;;;;;;;;14.20;99.90;;;;;;4999802;28;37188;-54
2022/05/27 01:43:37;;;;;;;;;;;14.20;99.90;;;;;;4999741;28;38053;-54
2022/05/27 01:46:08;;;;;;;;;;;14.10;99.90;;;;;;5000570;28;38354;-53
2022/05/27 01:48:39;;;;;;;;;;;14.10;99.90;;;;;;4999326;28;37545;-54
2022/05/27 01:51:08;;;;;;;;;;;14.10;99.90;;;;;;4999579;28;38098;-54
2022/05/27 01:53:39;;;;;;;;;;;14.10;99.90;;;;;;5000590;28;38309;-54
2022/05/27 01:56:11;;;;;;;;;;;14.00;99.90;;;;;;5000076;28;38884;-53
2022/05/27 01:58:40;;;;;;;;;;;14.00;99.90;;;;;;4999656;28;36425;-54
2022/05/27 02:01:10;;;;;;;;;;;14.00;99.90;;;;;;5000820;28;39751;-54
2022/05/27 02:03:40;;;;;;;;;;;13.90;99.90;;;;;;4999072;28;38541;-54
2022/05/27 02:06:10;;;;;;;;;;;13.90;99.90;;;;;;5000307;28;37044;-53
2022/05/27 02:08:39;;;;;;;;;;;13.90;99.90;;;;;;4999737;28;37044;-54
2022/05/27 02:11:08;;;;;;;;;;;13.70;99.90;;;;;;5000176;28;38677;-54
2022/05/27 02:13:38;;;;;;;;;;;13.70;99.90;;;;;;4997868;28;41599;-53
2022/05/27 02:16:06;;;;;;;;;;;13.70;99.90;;;;;;4999508;28;37479;-54
2022/05/27 02:18:37;;;;;;;;;;;13.60;99.90;;;;;;4999359;28;35352;-53
2022/05/27 02:21:05;;;;;;;;;;;13.50;99.90;;;;;;4999187;28;37846;-53
2022/05/27 02:23:34;;;;;;;;;;;13.50;99.90;;;;;;4999104;28;37724;-54
2022/05/27 02:26:03;;;;;;;;;;;13.50;99.90;;;;;;4999855;28;36962;-54
2022/05/27 02:28:32;;;;;;;;;;;13.50;99.90;;;;;;4999340;28;35902;-54
2022/05/27 02:31:01;;;;;;;;;;;13.40;99.90;;;;;;4999690;28;37776;-55
2022/05/27 02:36:17;;;;;;;;;;;13.40;99.90;;;;;;4999487;28;38954;-54
2022/05/27 02:38:45;;;;;;;;;;;13.30;99.90;;;;;;4999908;28;36490;-55
2022/05/27 02:41:14;;;;;;;;;;;13.30;99.90;;;;;;4999064;28;38491;-54
2022/05/27 02:43:49;;;;;;;;;;;13.20;99.90;;;;;;4999281;28;38231;-54
2022/05/27 02:46:21;;;;;;;;;;;13.20;99.90;;;;;;5000130;28;37063;-55
2022/05/27 02:48:55;;;;;;;;;;;13.20;99.90;;;;;;4998457;28;35068;-55
2022/05/27 02:51:25;;;;;;;;;;;13.10;99.90;;;;;;4999421;28;37271;-54
2022/05/27 02:53:57;;;;;;;;;;;13.10;99.90;;;;;;4999403;28;38214;-55
2022/05/27 02:56:26;;;;;;;;;;;13.10;99.90;;;;;;4998727;28;38526;-53
2022/05/27 02:58:54;;;;;;;;;;;13.00;99.90;;;;;;4998648;28;37787;-54
2022/05/27 03:01:21;;;;;;;;;;;13.00;99.90;;;;;;4998310;28;38435;-54
2022/05/27 03:03:48;;;;;;;;;;;13.00;99.90;;;;;;4999406;28;37665;-54
2022/05/27 03:06:22;;;;;;;;;;;12.90;99.90;;;;;;4998160;28;38008;-53
2022/05/27 03:08:55;;;;;;;;;;;12.90;99.90;;;;;;4998533;28;37244;-53
2022/05/27 03:11:26;;;;;;;;;;;12.80;99.90;;;;;;4999222;28;37048;-54
2022/05/27 03:13:58;;;;;;;;;;;12.70;99.90;;;;;;4998873;28;38483;-54
2022/05/27 03:16:29;;;;;;;;;;;12.70;99.90;;;;;;4998865;28;36928;-54
2022/05/27 03:19:06;;;;;;;;;;;12.70;99.90;;;;;;4999359;28;37565;-54
2022/05/27 03:21:36;;;;;;;;;;;12.60;99.90;;;;;;4998652;28;37957;-54
2022/05/27 03:24:09;;;;;;;;;;;12.60;99.90;;;;;;4998233;28;38634;-54
2022/05/27 03:26:42;;;;;;;;;;;12.60;99.90;;;;;;5002855;28;39063;-54
2022/05/27 03:29:18;;;;;;;;;;;12.60;99.90;;;;;;5001496;28;35899;-54
2022/05/27 03:31:48;;;;;;;;;;;12.50;99.90;;;;;;5002264;28;39006;-54
2022/05/27 03:34:17;;;;;;;;;;;12.50;99.90;;;;;;5002851;28;38570;-54
2022/05/27 03:36:46;;;;;;;;;;;12.50;99.90;;;;;;5001759;28;36301;-54
2022/05/27 03:39:18;;;;;;;;;;;12.50;99.90;;;;;;5001630;28;36859;-54
2022/05/27 03:41:48;;;;;;;;;;;12.50;99.90;;;;;;5002309;28;38683;-54
2022/05/27 03:44:16;;;;;;;;;;;12.50;99.90;;;;;;5002629;28;37072;-54
2022/05/27 03:46:44;;;;;;;;;;;12.50;99.90;;;;;;5002968;28;38418;-52
2022/05/27 03:49:11;;;;;;;;;;;12.50;99.90;;;;;;5000867;28;36396;-52
2022/05/27 03:51:43;;;;;;;;;;;12.50;99.90;;;;;;5001769;28;36435;-54
2022/05/27 03:54:12;;;;;;;;;;;12.50;99.90;;;;;;5001392;28;38306;-53
2022/05/27 03:56:41;;;;;;;;;;;12.50;99.90;;;;;;5001533;28;37658;-53
2022/05/27 03:59:09;;;;;;;;;;;12.50;99.90;;;;;;5001612;28;37672;-54
2022/05/27 04:01:37;;;;;;;;;;;12.60;99.90;;;;;;5002338;28;38079;-53
2022/05/27 04:04:05;;;;;;;;;;;12.60;99.90;;;;;;5000928;28;37125;-54
2022/05/27 04:06:32;;;;;;;;;;;12.60;99.90;;;;;;5002066;28;36451;-54
2022/05/27 04:09:00;;;;;;;;;;;12.70;99.90;;;;;;5000768;28;36339;-54
2022/05/27 04:11:27;;;;;;;;;;;12.60;99.90;;;;;;5002218;28;38374;-54
2022/05/27 04:13:56;;;;;;;;;;;12.60;99.90;;;;;;5001412;28;39078;-53
2022/05/27 04:16:23;;;;;;;;;;;12.60;99.90;;;;;;5001113;28;36238;-54
2022/05/27 04:18:50;;;;;;;;;;;12.70;99.90;;;;;;5000285;28;36506;-54
2022/05/27 04:21:17;;;;;;;;;;;12.70;99.90;;;;;;5000395;28;39090;-53
2022/05/27 04:23:45;;;;;;;;;;;12.80;99.90;;;;;;4999237;28;37749;-53
2022/05/27 04:26:12;;;;;;;;;;;12.80;99.90;;;;;;5001875;28;38823;-54
2022/05/27 04:28:39;;;;;;;;;;;12.80;99.90;;;;;;5000248;28;35099;-55
2022/05/27 04:31:08;;;;;;;;;;;12.80;99.90;;;;;;4999486;28;38604;-56
2022/05/27 04:33:35;;;;;;;;;;;12.80;99.90;;;;;;5001291;28;38691;-53
2022/05/27 04:36:02;;;;;;;;;;;12.90;99.90;;;;;;4999985;28;37262;-53
2022/05/27 04:38:30;;;;;;;;;;;13.00;99.90;;;;;;5001198;28;36307;-52
2022/05/27 04:40:57;;;;;;;;;;;13.10;99.90;;;;;;5001984;28;37901;-54
2022/05/27 04:43:24;;;;;;;;;;;13.10;99.90;;;;;;5001261;28;37325;-54
2022/05/27 04:45:51;;;;;;;;;;;13.20;99.90;;;;;;5001256;28;37836;-53
2022/05/27 04:48:20;;;;;;;;;;;13.20;99.90;;;;;;5000934;28;35091;-54
2022/05/27 04:50:48;;;;;;;;;;;13.30;99.90;;;;;;5001415;28;37650;-54
2022/05/27 04:53:15;;;;;;;;;;;13.30;99.90;;;;;;5000651;28;37097;-54
2022/05/27 04:55:43;;;;;;;;;;;13.30;99.90;;;;;;5001641;28;38432;-54
2022/05/27 04:58:11;;;;;;;;;;;13.40;99.90;;;;;;5000173;28;36216;-53
2022/05/27 05:00:39;;;;;;;;;;;13.30;99.90;;;;;;5000233;28;36738;-54
2022/05/27 05:03:07;;;;;;;;;;;13.40;99.90;;;;;;4998094;28;38159;-54
2022/05/27 05:05:36;;;;;;;;;;;13.40;99.90;;;;;;4998729;28;37296;-54
2022/05/27 05:08:05;;;;;;;;;;;13.30;99.90;;;;;;4999869;28;36800;-54
2022/05/27 05:10:32;;;;;;;;;;;13.40;99.90;;;;;;4999309;28;37588;-54
2022/05/27 05:12:59;;;;;;;;;;;13.40;99.90;;;;;;4999316;28;40548;-53
2022/05/27 05:15:27;;;;;;;;;;;13.50;99.90;;;;;;4999335;28;37466;-54
2022/05/27 05:17:54;;;;;;;;;;;13.50;99.90;;;;;;5000279;28;35271;-54
2022/05/27 05:20:22;;;;;;;;;;;13.50;99.90;;;;;;5001007;28;38094;-54
2022/05/27 05:22:51;;;;;;;;;;;13.50;99.90;;;;;;5000929;28;39758;-54
2022/05/27 05:25:18;;;;;;;;;;;13.60;99.90;;;;;;5001510;28;37804;-54
2022/05/27 05:27:45;;;;;;;;;;;13.60;99.90;;;;;;4999456;28;35268;-54
2022/05/27 05:30:17;;;;;;;;;;;13.60;99.90;;;;;;4998899;28;37521;-51
2022/05/27 05:32:44;;;;;;;;;;;13.70;99.90;;;;;;5000290;28;37297;-52
2022/05/27 05:35:11;;;;;;;;;;;13.90;99.90;;;;;;5000521;28;36483;-54
2022/05/27 05:37:38;;;;;;;;;;;13.90;99.90;;;;;;5002101;28;36223;-54
2022/05/27 05:40:08;;;;;;;;;;;13.90;99.90;;;;;;5001120;28;38229;-53
2022/05/27 05:42:36;;;;;;;;;;;14.00;99.90;;;;;;5000615;28;40755;-53
2022/05/27 05:45:03;;;;;;;;;;;14.20;99.90;;;;;;5000934;28;37366;-53
2022/05/27 05:47:30;;;;;;;;;;;14.40;99.90;;;;;;5000591;28;35050;-53
2022/05/27 05:49:57;;;;;;;;;;;14.50;99.90;;;;;;4998650;28;37914;-50
2022/05/27 05:52:25;;;;;;;;;;;14.40;99.90;;;;;;4999035;28;38455;-53
2022/05/27 05:54:52;;;;;;;;;;;14.40;99.90;;;;;;4998969;28;36404;-53
2022/05/27 05:57:21;;;;;;;;;;;14.50;99.90;;;;;;4999272;28;34980;-54
2022/05/27 05:59:48;;;;;;;;;;;14.60;99.90;;;;;;4998511;28;38091;-53
2022/05/27 06:02:15;;;;;;;;;;;14.70;99.90;;;;;;4999138;28;39513;-53
2022/05/27 06:04:42;;;;;;;;;;;14.90;99.90;;;;;;4998949;28;37707;-53
2022/05/27 06:07:09;;;;;;;;;;;15.00;99.90;;;;;;4998015;28;36259;-54
2022/05/27 06:09:37;;;;;;;;;;;15.20;99.90;;;;;;4998862;28;37976;-52
2022/05/27 06:12:04;;;;;;;;;;;15.30;99.50;;;;;;4999339;28;38444;-52
2022/05/27 06:14:33;;;;;;;;;;;15.50;99.70;;;;;;4995578;28;38075;-54
2022/05/27 06:17:00;;;;;;;;;;;15.50;99.50;;;;;;4999341;28;36816;-53
2022/05/27 06:19:27;;;;;;;;;;;15.60;98.40;;;;;;4999711;28;38107;-53
2022/05/27 06:21:54;;;;;;;;;;;15.60;97.60;;;;;;4999955;28;37309;-53
2022/05/27 06:24:21;;;;;;;;;;;15.60;97.10;;;;;;4998704;28;39181;-53
2022/05/27 06:26:48;;;;;;;;;;;15.70;95.60;;;;;;4998811;28;35681;-53
2022/05/27 06:34:48;;;;;;;;;;;16.20;94.10;;;;;;4998500;28;38454;-54
2022/05/27 06:37:18;;;;;;;;;;;16.20;94.90;;;;;;4999757;28;35032;-54
2022/05/27 06:39:45;;;;;;;;;;;16.00;93.00;;;;;;4998597;28;39687;-53
2022/05/27 06:42:13;;;;;;;;;;;15.80;93.70;;;;;;4999330;28;38966;-55
2022/05/27 06:44:40;;;;;;;;;;;15.60;92.20;;;;;;4998317;28;39221;-54
2022/05/27 06:47:09;;;;;;;;;;;15.50;92.80;;;;;;4999115;28;36630;-54
2022/05/27 06:49:37;;;;;;;;;;;15.50;90.80;;;;;;5000039;28;39040;-54
2022/05/27 06:52:05;;;;;;;;;;;15.50;92.70;;;;;;4999643;28;39812;-52
2022/05/27 06:54:34;;;;;;;;;;;15.60;92.90;;;;;;4999090;28;37535;-54
2022/05/27 06:57:01;;;;;;;;;;;15.70;93.10;;;;;;4998449;28;37188;-53
2022/05/27 06:59:28;;;;;;;;;;;15.70;92.80;;;;;;4998608;28;38398;-54
2022/05/27 07:01:56;;;;;;;;;;;15.60;92.30;;;;;;5001169;28;39045;-54
2022/05/27 07:04:24;;;;;;;;;;;15.50;92.60;;;;;;5002577;28;38882;-54
2022/05/27 07:06:51;;;;;;;;;;;15.50;92.40;;;;;;5002423;28;36689;-54
2022/05/27 07:09:19;;;;;;;;;;;15.60;91.30;;;;;;5003378;28;37254;-54
2022/05/27 07:11:48;;;;;;;;;;;15.70;92.30;;;;;;5002120;28;40745;-54
2022/05/27 07:14:15;;;;;;;;;;;15.80;92.30;;;;;;5002852;28;38012;-53
2022/05/27 07:16:43;;;;;;;;;;;15.90;92.70;;;;;;5003188;28;36823;-55
2022/05/27 07:19:10;;;;;;;;;;;16.10;91.90;;;;;;5002126;28;36521;-54
2022/05/27 07:21:40;;;;;;;;;;;16.20;89.90;;;;;;5002317;28;39282;-54
2022/05/27 07:24:09;;;;;;;;;;;16.20;90.30;;;;;;5002821;28;36228;-55
2022/05/27 07:26:37;;;;;;;;;;;16.30;91.50;;;;;;5002039;28;36697;-55
2022/05/27 07:29:05;;;;;;;;;;;16.20;90.40;;;;;;5001866;28;37568;-55
2022/05/27 07:31:32;;;;;;;;;;;16.00;90.30;;;;;;5001968;28;37718;-55
2022/05/27 07:33:59;;;;;;;;;;;15.90;91.00;;;;;;4998663;28;37837;-55
2022/05/27 07:36:26;;;;;;;;;;;16.00;90.40;;;;;;5002478;28;35994;-56
2022/05/27 07:38:54;;;;;;;;;;;16.10;92.10;;;;;;4995403;28;38315;-55
2022/05/27 07:41:22;;;;;;;;;;;16.20;89.50;;;;;;4995644;28;37720;-55
2022/05/27 07:43:50;;;;;;;;;;;16.30;89.50;;;;;;4996874;28;38493;-55
2022/05/27 07:46:19;;;;;;;;;;;16.40;86.30;;;;;;4997056;28;35904;-55
2022/05/27 07:48:46;;;;;;;;;;;16.40;85.90;;;;;;4997178;28;38839;-55
2022/05/27 07:51:13;;;;;;;;;;;16.50;87.40;;;;;;4996717;28;38901;-55
2022/05/27 07:53:40;;;;;;;;;;;16.50;86.90;;;;;;4997074;28;37393;-54
2022/05/27 07:56:09;;;;;;;;;;;16.50;87.30;;;;;;4996798;28;37290;-54
2022/05/27 07:58:37;;;;;;;;;;;16.50;91.50;;;;;;4995554;28;36371;-55
2022/05/27 08:01:04;;;;;;;;;;;16.50;90.00;;;;;;4996019;28;38686;-54
2022/05/27 08:03:32;;;;;;;;;;;16.60;90.00;;;;;;4997046;28;38471;-54
2022/05/27 08:05:59;;;;;;;;;;;16.60;90.40;;;;;;4996458;28;37315;-55
2022/05/27 08:08:29;;;;;;;;;;;16.40;88.10;;;;;;4995609;28;38637;-54
2022/05/27 08:10:56;;;;;;;;;;;16.30;90.70;;;;;;4995101;28;38564;-55
2022/05/27 08:13:25;;;;;;;;;;;16.40;91.60;;;;;;4995186;28;38259;-54
2022/05/27 08:15:53;;;;;;;;;;;16.60;89.70;;;;;;4995540;28;34266;-55
2022/05/27 08:18:20;;;;;;;;;;;16.70;88.00;;;;;;4994497;28;40262;-55
2022/05/27 08:20:47;;;;;;;;;;;16.80;90.50;;;;;;4995440;28;37077;-55
2022/05/27 08:23:15;;;;;;;;;;;16.90;91.10;;;;;;4994287;28;39568;-55
2022/05/27 08:25:42;;;;;;;;;;;17.10;86.50;;;;;;4994431;28;36845;-55
2022/05/27 08:28:09;;;;;;;;;;;17.00;81.60;;;;;;4996482;28;37674;-55
2022/05/27 08:30:39;;;;;;;;;;;17.00;82.50;;;;;;4994405;28;40120;-55
2022/05/27 08:33:06;;;;;;;;;;;16.90;82.80;;;;;;4994910;28;38826;-55
2022/05/27 08:38:21;;;;;;;;;;;16.70;84.50;;;;;;4996254;28;39338;-55
2022/05/27 08:40:57;;;;;;;;;;;16.90;87.00;;;;;;4996674;28;38610;-54
2022/05/27 08:43:29;;;;;;;;;;;17.00;86.10;;;;;;4996146;28;38531;-55
2022/05/27 08:46:00;;;;;;;;;;;17.00;84.80;;;;;;4996064;28;36097;-55
2022/05/27 08:48:32;;;;;;;;;;;16.90;82.50;;;;;;4995402;28;38273;-55
2022/05/27 08:51:01;;;;;;;;;;;16.70;87.20;;;;;;4996456;28;38596;-55
2022/05/27 08:53:32;;;;;;;;;;;16.60;84.40;;;;;;4995428;28;36573;-55
2022/05/27 09:01:36;;;;;;;;;;;16.70;85.50;;;;;;4994665;28;42026;-55
2022/05/27 09:04:08;;;;;;;;;;;16.80;88.00;;;;;;4995675;28;38988;-55
2022/05/27 09:06:37;;;;;;;;;;;17.00;84.10;;;;;;5009380;28;37479;-55
2022/05/27 09:09:06;;;;;;;;;;;17.00;83.30;;;;;;5022568;28;36816;-56
2022/05/27 09:11:39;;;;;;;;;;;16.90;80.80;;;;;;5032331;28;39757;-56
2022/05/27 09:14:10;;;;;;;;;;;16.80;80.60;;;;;;5028878;28;38229;-55
2022/05/27 09:16:40;;;;;;;;;;;16.60;79.90;;;;;;5000371;28;36428;-55
2022/05/27 09:19:13;;;;;;;;;;;16.50;81.80;;;;;;4996113;28;37985;-54
2022/05/27 09:21:43;;;;;;;;;;;16.40;81.80;;;;;;4998033;28;38277;-53
2022/05/27 09:24:22;;;;;;;;;;;16.30;84.60;;;;;;4998159;28;37347;-55
2022/05/27 09:26:52;;;;;;;;;;;16.50;90.20;;;;;;4998844;28;34879;-55
2022/05/27 09:29:25;;;;;;;;;;;16.70;85.20;;;;;;4999199;28;37733;-55
2022/05/27 09:31:54;;;;;;;;;;;16.80;85.60;;;;;;4997488;28;38551;-55
2022/05/27 09:34:23;;;;;;;;;;;16.70;80.80;;;;;;4998718;28;38238;-56
2022/05/27 09:36:52;;;;;;;;;;;16.50;87.30;;;;;;4998213;28;36445;-55
2022/05/27 09:39:21;;;;;;;;;;;16.50;85.80;;;;;;4998130;28;37727;-56
2022/05/27 09:41:52;;;;;;;;;;;16.60;85.90;;;;;;4999527;28;38187;-55
2022/05/27 09:44:24;;;;;;;;;;;16.60;88.20;;;;;;5000566;28;37745;-55
2022/05/27 09:46:52;;;;;;;;;;;16.70;88.00;;;;;;5000920;28;35163;-55
2022/05/27 09:49:21;;;;;;;;;;;16.70;85.40;;;;;;4999476;28;39012;-55
2022/05/27 09:51:48;;;;;;;;;;;16.60;83.00;;;;;;4999531;28;38462;-56
2022/05/27 09:54:20;;;;;;;;;;;16.50;85.50;;;;;;4999908;28;37546;-55
2022/05/27 09:56:56;;;;;;;;;;;16.60;87.30;;;;;;4998791;28;35736;-55
2022/05/27 09:59:25;;;;;;;;;;;16.70;85.50;;;;;;4999103;28;36600;-55
2022/05/27 10:01:53;;;;;;;;;;;17.00;88.30;;;;;;4999406;28;38895;-55
2022/05/27 10:04:21;;;;;;;;;;;17.20;85.70;;;;;;5000225;28;40177;-56
2022/05/27 10:06:48;;;;;;;;;;;17.30;81.60;;;;;;5000396;28;36265;-56
2022/05/27 10:09:26;;;;;;;;;;;17.20;80.50;;;;;;4999974;28;39172;-55
2022/05/27 10:11:54;;;;;;;;;;;17.10;78.50;;;;;;4999896;28;38370;-56
2022/05/27 10:14:23;;;;;;;;;;;17.10;89.60;;;;;;4999938;28;37521;-55
2022/05/27 10:17:07;;;;;;;;;;;17.10;86.60;;;;;;4999025;28;37964;-56
2022/05/27 10:19:37;;;;;;;;;;;17.00;82.20;;;;;;4999247;28;38828;-55
2022/05/27 10:22:05;;;;;;;;;;;16.90;82.60;;;;;;5000124;28;37034;-56
2022/05/27 10:24:33;;;;;;;;;;;16.80;84.80;;;;;;4998775;28;36361;-55
2022/05/27 10:27:01;;;;;;;;;;;16.90;82.20;;;;;;4999324;28;35906;-55
2022/05/27 10:29:28;;;;;;;;;;;17.00;86.30;;;;;;5000060;28;37792;-55
2022/05/27 10:31:58;;;;;;;;;;;17.00;86.40;;;;;;5000610;28;38365;-55
2022/05/27 10:34:40;;;;;;;;;;;17.00;82.00;;;;;;4998693;28;39642;-56
2022/05/27 10:37:09;;;;;;;;;;;16.90;80.10;;;;;;4998972;28;36568;-55
2022/05/27 10:39:42;;;;;;;;;;;16.90;85.30;;;;;;4999125;28;37730;-55
2022/05/27 10:42:25;;;;;;;;;;;17.00;87.40;;;;;;4998921;28;40723;-55
2022/05/27 10:44:58;;;;;;;;;;;17.00;84.10;;;;;;5000228;28;36904;-56
2022/05/27 10:47:31;;;;;;;;;;;16.90;84.60;;;;;;4999365;28;36471;-55
2022/05/27 10:50:05;;;;;;;;;;;16.70;86.20;;;;;;4998807;28;38406;-55
2022/05/27 10:52:44;;;;;;;;;;;16.70;85.50;;;;;;5000249;28;40636;-56
2022/05/27 10:55:15;;;;;;;;;;;16.60;83.30;;;;;;4998123;28;37772;-56
2022/05/27 11:03:54;;;;;;;;;;;16.10;87.50;;;;;;4992212;28;39146;-56
2022/05/27 11:06:40;;;;;;;;;;;16.10;89.50;;;;;;4997784;28;37332;-56
2022/05/27 11:09:14;;;;;;;;;;;16.10;87.60;;;;;;4998266;28;39507;-55
2022/05/27 11:11:44;;;;;;;;;;;16.30;89.60;;;;;;4997954;28;38307;-55
2022/05/27 11:17:09;;;;;;;;;;;16.40;85.30;;;;;;4999284;28;39160;-56
2022/05/27 11:19:54;;;;;;;;;;;16.30;85.10;;;;;;4998796;28;37852;-55
2022/05/27 11:22:27;;;;;;;;;;;16.20;86.30;;;;;;4998623;28;36574;-56
2022/05/27 11:25:02;;;;;;;;;;;16.10;85.60;;;;;;4997994;28;38035;-55
2022/05/27 11:27:36;;;;;;;;;;;16.10;85.80;;;;;;4998318;28;37861;-55
2022/05/27 11:30:07;;;;;;;;;;;16.10;88.40;;;;;;4998693;28;36120;-56
2022/05/27 11:32:47;;;;;;;;;;;16.20;90.10;;;;;;5000491;28;38586;-56
2022/05/27 11:35:16;;;;;;;;;;;16.20;86.60;;;;;;4999613;28;37584;-55
2022/05/27 11:37:50;;;;;;;;;;;16.20;91.10;;;;;;4998752;28;38368;-56
2022/05/27 11:40:32;;;;;;;;;;;16.10;86.90;;;;;;4999378;28;35060;-56
2022/05/27 11:43:17;;;;;;;;;;;16.10;88.00;;;;;;4998982;28;37316;-55
2022/05/27 11:45:47;;;;;;;;;;;16.20;88.10;;;;;;5000687;28;38266;-56
2022/05/27 11:48:19;;;;;;;;;;;16.30;89.80;;;;;;5003676;28;38225;-56
2022/05/27 11:50:55;;;;;;;;;;;16.40;89.80;;;;;;5002375;28;36280;-56
2022/05/27 11:53:40;;;;;;;;;;;16.40;85.80;;;;;;5001669;28;40391;-56
2022/05/27 11:56:14;;;;;;;;;;;16.40;85.80;;;;;;5001919;28;39008;-56
2022/05/27 11:58:48;;;;;;;;;;;16.30;86.30;;;;;;5002692;28;37482;-56
2022/05/27 12:01:18;;;;;;;;;;;16.40;89.60;;;;;;5002544;28;36902;-55
2022/05/27 12:03:48;;;;;;;;;;;16.30;86.60;;;;;;5000787;28;39640;-56
2022/05/27 12:06:17;;;;;;;;;;;16.50;90.90;;;;;;5001294;28;36993;-56
2022/05/27 12:08:49;;;;;;;;;;;16.50;86.40;;;;;;5002196;28;37714;-56
2022/05/27 12:11:21;;;;;;;;;;;16.40;87.60;;;;;;5001083;28;39204;-56
2022/05/27 12:13:51;;;;;;;;;;;16.40;87.30;;;;;;5000327;28;40177;-56
2022/05/27 12:16:19;;;;;;;;;;;16.30;87.60;;;;;;5000568;28;39760;-56
2022/05/27 12:18:47;;;;;;;;;;;16.30;87.50;;;;;;4999669;28;37481;-57
2022/05/27 12:21:17;;;;;;;;;;;16.20;86.70;;;;;;5001134;28;37349;-57
2022/05/27 12:23:48;;;;;;;;;;;16.10;88.30;;;;;;4999379;28;40074;-56
2022/05/27 12:26:16;;;;;;;;;;;16.20;89.90;;;;;;4999273;28;38308;-56
2022/05/27 12:28:46;;;;;;;;;;;16.20;87.60;;;;;;4997854;28;39173;-56
2022/05/27 12:31:14;;;;;;;;;;;16.10;87.50;;;;;;5000050;28;37053;-56
2022/05/27 12:33:41;;;;;;;;;;;16.10;88.40;;;;;;4998534;28;37646;-56
2022/05/27 12:36:13;;;;;;;;;;;16.00;88.90;;;;;;5000268;28;40731;-56
2022/05/27 12:38:44;;;;;;;;;;;16.00;90.80;;;;;;4999740;28;37398;-56
2022/05/27 12:41:16;;;;;;;;;;;16.00;88.60;;;;;;4999813;28;39033;-56
2022/05/27 12:43:58;;;;;;;;;;;16.00;88.00;;;;;;5000524;28;36564;-56
2022/05/27 12:46:32;;;;;;;;;;;15.90;89.70;;;;;;5000944;28;38242;-56
2022/05/27 12:49:17;;;;;;;;;;;15.80;90.60;;;;;;5000894;28;36315;-56
2022/05/27 12:51:46;;;;;;;;;;;15.70;91.60;;;;;;4999935;28;36549;-56
2022/05/27 12:54:33;;;;;;;;;;;15.70;90.90;;;;;;5000859;28;38106;-56
2022/05/27 13:02:46;;;;;;;;;;;15.60;92.20;;;;;;5000391;28;37496;-56
2022/05/27 13:05:14;;;;;;;;;;;15.80;91.50;;;;;;4999942;28;37533;-56
2022/05/27 13:07:46;;;;;;;;;;;15.80;90.50;;;;;;4998867;28;38319;-56
2022/05/27 13:10:28;;;;;;;;;;;15.70;90.50;;;;;;4996799;28;37826;-56
2022/05/27 13:12:58;;;;;;;;;;;15.80;91.10;;;;;;4995034;28;37229;-56
2022/05/27 13:15:32;;;;;;;;;;;15.70;90.20;;;;;;4998800;28;37854;-56
2022/05/27 13:18:09;;;;;;;;;;;15.70;88.80;;;;;;4997681;28;39228;-57
2022/05/27 13:20:51;;;;;;;;;;;15.60;90.60;;;;;;4998003;28;37412;-56
2022/05/27 13:23:19;;;;;;;;;;;15.70;90.30;;;;;;4998383;28;36562;-56
2022/05/27 13:25:56;;;;;;;;;;;15.70;90.50;;;;;;4999976;28;37638;-57
2022/05/27 13:28:28;;;;;;;;;;;15.80;91.40;;;;;;5000085;28;38375;-57
2022/05/27 13:31:05;;;;;;;;;;;15.80;90.10;;;;;;4999459;28;37685;-57
2022/05/27 13:33:35;;;;;;;;;;;15.70;89.70;;;;;;4999545;28;36940;-57
2022/05/27 13:36:02;;;;;;;;;;;15.60;89.70;;;;;;5000045;28;39198;-56
2022/05/27 13:38:32;;;;;;;;;;;15.60;90.60;;;;;;4999918;28;40634;-57
2022/05/27 13:40:59;;;;;;;;;;;15.60;89.10;;;;;;4998599;28;38118;-58
2022/05/27 13:43:30;;;;;;;;;;;15.60;90.60;;;;;;4998650;28;37016;-56
2022/05/27 13:46:07;;;;;;;;;;;15.60;91.30;;;;;;5000479;28;38562;-57
2022/05/27 13:48:36;;;;;;;;;;;15.70;90.90;;;;;;4998684;28;38436;-57
2022/05/27 13:51:07;;;;;;;;;;;15.70;90.70;;;;;;4999461;28;37631;-56
2022/05/27 13:53:35;;;;;;;;;;;15.70;92.20;;;;;;4998709;28;36358;-57
2022/05/27 13:56:08;;;;;;;;;;;15.70;91.20;;;;;;4998333;28;37904;-56
2022/05/27 13:58:36;;;;;;;;;;;15.80;90.60;;;;;;4998192;28;38898;-56
2022/05/27 14:01:06;;;;;;;;;;;15.80;90.50;;;;;;4998448;28;38619;-57
2022/05/27 14:03:38;;;;;;;;;;;15.80;90.80;;;;;;4998258;28;37608;-56
2022/05/27 14:06:06;;;;;;;;;;;15.90;91.20;;;;;;4999648;28;37691;-57
2022/05/27 14:08:34;;;;;;;;;;;15.90;90.10;;;;;;4998297;28;39161;-57
2022/05/27 14:11:06;;;;;;;;;;;15.90;90.70;;;;;;4998291;28;38134;-56
2022/05/27 14:13:33;;;;;;;;;;;15.90;91.00;;;;;;4998696;28;36499;-57
2022/05/27 14:16:00;;;;;;;;;;;15.90;90.30;;;;;;4997812;28;37620;-57
2022/05/27 14:18:32;;;;;;;;;;;15.80;90.10;;;;;;4997725;28;38496;-57
2022/05/27 14:23:45;;;;;;;;;;;15.60;90.30;;;;;;5000083;28;38983;-57
2022/05/27 14:26:12;;;;;;;;;;;15.50;90.60;;;;;;4999737;28;36588;-57
2022/05/27 14:28:42;;;;;;;;;;;15.50;90.50;;;;;;4998900;28;38495;-57
2022/05/27 14:31:11;;;;;;;;;;;15.50;91.00;;;;;;4998858;28;36492;-56
2022/05/27 14:33:42;;;;;;;;;;;15.50;92.10;;;;;;4997897;28;36234;-56
2022/05/27 14:36:12;;;;;;;;;;;15.60;91.00;;;;;;4999598;28;37627;-57
2022/05/27 14:38:41;;;;;;;;;;;15.60;90.80;;;;;;4998175;28;40962;-57
2022/05/27 14:41:11;;;;;;;;;;;15.70;90.10;;;;;;4997281;28;38558;-56
2022/05/27 14:43:39;;;;;;;;;;;15.70;89.70;;;;;;4998345;28;35077;-56
2022/05/27 14:46:13;;;;;;;;;;;15.60;89.90;;;;;;4998804;28;36594;-57
2022/05/27 14:48:42;;;;;;;;;;;15.50;88.50;;;;;;4997926;28;38457;-56
2022/05/27 14:51:13;;;;;;;;;;;15.50;90.10;;;;;;4998531;28;36373;-57
2022/05/27 14:53:41;;;;;;;;;;;15.60;89.10;;;;;;4999333;28;36933;-56
2022/05/27 14:56:09;;;;;;;;;;;15.60;88.90;;;;;;4998405;28;39098;-56
2022/05/27 14:58:37;;;;;;;;;;;15.60;90.10;;;;;;4995691;28;38125;-57
2022/05/27 15:01:07;;;;;;;;;;;15.50;89.50;;;;;;4996533;28;37748;-56
2022/05/27 15:03:39;;;;;;;;;;;15.40;88.70;;;;;;4996650;28;37993;-56
2022/05/27 15:06:15;;;;;;;;;;;15.30;90.30;;;;;;4998404;28;37573;-56